createdAt,value
2023-06-03T00:01:13.471Z,101311.78
2023-06-03T00:03:40.684Z,101316.13
2023-06-03T00:06:08.023Z,101319.59
2023-06-03T00:08:35.214Z,101328.22
2023-06-03T00:11:02.331Z,101325.63
2023-06-03T00:13:29.755Z,101323.91
2023-06-03T00:15:59.450Z,101325.63
2023-06-03T00:18:28.813Z,101324.78
2023-06-03T00:20:56.570Z,101329.97
2023-06-03T00:23:25.132Z,101333.41
2023-06-03T00:25:52.691Z,101333.44
2023-06-03T00:28:25.505Z,101338.63
2023-06-03T00:30:55.445Z,101334.28
2023-06-03T00:33:22.732Z,101336.00
2023-06-03T00:35:50.033Z,101341.22
2023-06-03T00:38:17.976Z,101341.19
2023-06-03T00:40:46.305Z,101338.63
2023-06-03T00:43:13.753Z,101343.81
2023-06-03T00:45:40.839Z,101343.84
2023-06-03T00:48:08.138Z,101346.50
2023-06-03T00:50:36.031Z,101354.31
2023-06-03T00:53:04.197Z,101350.81
2023-06-03T00:55:31.397Z,101352.50
2023-06-03T00:57:58.655Z,101351.66
2023-06-03T01:00:26.376Z,101348.22
2023-06-03T01:02:53.663Z,101343.03
2023-06-03T01:05:20.854Z,101348.22
2023-06-03T01:08:09.129Z,101346.53
2023-06-03T01:10:47.490Z,101349.13
2023-06-03T01:13:29.772Z,101338.75
2023-06-03T01:16:05.968Z,101343.03
2023-06-03T01:18:35.354Z,101345.69
2023-06-03T01:21:05.041Z,101347.44
2023-06-03T01:23:36.168Z,101339.69
2023-06-03T01:26:07.788Z,101337.94
2023-06-03T01:28:35.148Z,101344.84
2023-06-03T01:31:03.723Z,101341.41
2023-06-03T01:33:33.722Z,101350.91
2023-06-03T01:36:02.274Z,101348.28
2023-06-03T01:38:29.739Z,101342.22
2023-06-03T01:41:00.538Z,101340.50
2023-06-03T01:43:27.752Z,101342.22
2023-06-03T01:45:55.228Z,101330.13
2023-06-03T01:48:22.653Z,101337.94
2023-06-03T01:50:49.968Z,101334.47
2023-06-03T01:53:19.134Z,101327.53
2023-06-03T01:55:47.788Z,101326.69
2023-06-03T01:58:16.814Z,101331.94
2023-06-03T02:00:43.788Z,101323.28
2023-06-03T02:03:10.942Z,101319.88
2023-06-03T02:05:38.019Z,101324.19
2023-06-03T02:08:05.418Z,101322.47
2023-06-03T02:10:32.692Z,101312.09
2023-06-03T02:12:59.600Z,101314.69
2023-06-03T02:15:26.575Z,101313.81
2023-06-03T02:17:53.587Z,101312.94
2023-06-03T02:20:21.539Z,101319.88
2023-06-03T02:22:49.525Z,101307.75
2023-06-03T02:25:16.604Z,101319.00
2023-06-03T02:27:45.068Z,101318.16
2023-06-03T02:30:13.450Z,101325.91
2023-06-03T02:32:40.944Z,101324.19
2023-06-03T02:35:08.672Z,101327.63
2023-06-03T02:37:35.759Z,101325.06
2023-06-03T02:40:03.078Z,101331.97
2023-06-03T02:42:31.264Z,101333.69
2023-06-03T02:44:58.293Z,101336.31
2023-06-03T02:47:25.491Z,101334.59
2023-06-03T02:49:55.012Z,101339.75
2023-06-03T02:52:23.927Z,101344.91
2023-06-03T02:54:51.330Z,101344.06
2023-06-03T02:57:18.713Z,101342.34
2023-06-03T02:59:45.786Z,101343.19
2023-06-03T03:02:12.887Z,101343.22
2023-06-03T03:04:40.064Z,101347.53
2023-06-03T03:07:10.455Z,101351.88
2023-06-03T03:09:39.709Z,101351.88
2023-06-03T03:12:10.265Z,101350.13
2023-06-03T03:14:41.260Z,101357.03
2023-06-03T03:17:08.499Z,101354.44
2023-06-03T03:19:36.678Z,101347.56
2023-06-03T03:22:04.402Z,101348.41
2023-06-03T03:24:31.983Z,101357.91
2023-06-03T03:27:00.846Z,101357.06
2023-06-03T03:29:33.764Z,101370.88
2023-06-03T03:32:09.209Z,101374.31
2023-06-03T03:34:39.958Z,101372.59
2023-06-03T03:37:12.467Z,101363.09
2023-06-03T03:39:40.053Z,101363.09
2023-06-03T03:42:09.679Z,101362.22
2023-06-03T03:44:36.795Z,101362.22
2023-06-03T03:47:05.584Z,101362.25
2023-06-03T03:49:37.268Z,101363.94
2023-06-03T03:52:09.927Z,101365.66
2023-06-03T03:54:41.439Z,101367.41
2023-06-03T03:57:14.357Z,101354.44
2023-06-03T03:59:47.229Z,101354.47
2023-06-03T04:02:15.309Z,101362.25
2023-06-03T04:04:46.088Z,101362.25
2023-06-03T04:07:19.317Z,101357.06
2023-06-03T04:09:48.413Z,101355.31
2023-06-03T04:12:25.659Z,101362.25
2023-06-03T04:14:55.132Z,101361.34
2023-06-03T04:17:26.792Z,101360.50
2023-06-03T04:19:54.292Z,101367.41
2023-06-03T04:22:25.721Z,101366.53
2023-06-03T04:25:00.378Z,101357.03
2023-06-03T04:27:50.051Z,101350.13
2023-06-03T04:30:18.394Z,101356.16
2023-06-03T04:32:46.162Z,101344.06
2023-06-03T04:35:13.239Z,101354.44
2023-06-03T04:37:43.739Z,101351.00
2023-06-03T04:40:14.853Z,101354.44
2023-06-03T04:42:42.745Z,101352.72
2023-06-03T04:45:11.263Z,101348.41
2023-06-03T04:47:42.788Z,101345.81
2023-06-03T04:50:11.486Z,101357.91
2023-06-03T04:52:39.576Z,101350.97
2023-06-03T04:55:09.900Z,101346.69
2023-06-03T04:57:38.907Z,101350.13
2023-06-03T05:00:10.846Z,101353.56
2023-06-03T05:02:38.249Z,101347.53
2023-06-03T05:05:06.694Z,101353.56
2023-06-03T05:07:37.166Z,101345.81
2023-06-03T05:10:05.048Z,101357.91
2023-06-03T05:12:32.434Z,101347.53
2023-06-03T05:14:59.505Z,101354.41
2023-06-03T05:17:27.721Z,101355.28
2023-06-03T05:19:55.035Z,101356.13
2023-06-03T05:22:22.124Z,101356.13
2023-06-03T05:24:49.155Z,101363.03
2023-06-03T05:27:16.376Z,101359.56
2023-06-03T05:29:43.589Z,101353.50
2023-06-03T05:32:11.067Z,101358.66
2023-06-03T05:34:38.136Z,101344.81
2023-06-03T05:37:05.678Z,101355.19
2023-06-03T05:39:32.844Z,101362.06
2023-06-03T05:42:01.256Z,101362.94
2023-06-03T05:44:28.365Z,101353.41
2023-06-03T05:46:55.587Z,101358.59
2023-06-03T05:49:24.552Z,101359.44
2023-06-03T05:51:51.678Z,101359.41
2023-06-03T05:54:18.747Z,101354.22
2023-06-03T05:56:46.703Z,101356.78
2023-06-03T05:59:14.125Z,101355.09
2023-06-03T06:01:44.816Z,101359.38
2023-06-03T06:04:12.771Z,101361.06
2023-06-03T06:06:39.846Z,101366.25
2023-06-03T06:09:06.885Z,101362.75
2023-06-03T06:11:34.613Z,101366.16
2023-06-03T06:14:01.692Z,101363.59
2023-06-03T06:16:28.749Z,101365.31
2023-06-03T06:18:57.811Z,101367.00
2023-06-03T06:21:25.699Z,101373.00
2023-06-03T06:23:52.811Z,101365.22
2023-06-03T06:26:20.054Z,101373.84
2023-06-03T06:28:47.585Z,101378.19
2023-06-03T06:31:17.202Z,101378.19
2023-06-03T06:33:49.526Z,101383.38
2023-06-03T06:36:30.930Z,101383.38
2023-06-03T06:39:01.112Z,101386.84
2023-06-03T06:41:31.165Z,101386.78
2023-06-03T06:44:01.505Z,101392.84
2023-06-03T06:46:28.807Z,101398.94
2023-06-03T06:48:56.085Z,101392.88
2023-06-03T06:51:26.214Z,101385.03
2023-06-03T06:53:54.216Z,101396.22
2023-06-03T06:56:22.517Z,101399.59
2023-06-03T06:58:55.969Z,101409.97
2023-06-03T07:01:23.457Z,101410.81
2023-06-03T07:03:55.615Z,101415.19
2023-06-03T07:06:22.907Z,101417.78
2023-06-03T07:08:55.589Z,101414.34
2023-06-03T07:11:25.109Z,101419.50
2023-06-03T07:14:03.511Z,101424.75
2023-06-03T07:16:30.593Z,101422.97
2023-06-03T07:18:57.955Z,101429.03
2023-06-03T07:21:34.157Z,101431.63
2023-06-03T07:24:03.453Z,101429.00
2023-06-03T07:26:33.441Z,101433.38
2023-06-03T07:29:01.738Z,101431.59
2023-06-03T07:31:30.905Z,101435.91
2023-06-03T07:33:58.451Z,101430.66
2023-06-03T07:36:41.729Z,101433.25
2023-06-03T07:39:10.314Z,101437.59
2023-06-03T07:41:41.790Z,101432.31
2023-06-03T07:44:25.564Z,101427.13
2023-06-03T07:46:58.945Z,101427.09
2023-06-03T07:49:26.248Z,101427.94
2023-06-03T07:51:54.154Z,101429.63
2023-06-03T07:54:21.432Z,101433.88
2023-06-03T07:56:48.864Z,101426.88
2023-06-03T07:59:17.321Z,101432.94
2023-06-03T08:01:44.428Z,101437.28
2023-06-03T08:04:36.568Z,101441.59
2023-06-03T08:07:07.162Z,101438.13
2023-06-03T08:09:57.151Z,101440.72
2023-06-03T08:12:35.131Z,101442.38
2023-06-03T08:15:03.142Z,101437.13
2023-06-03T08:17:41.013Z,101446.63
2023-06-03T08:20:11.459Z,101451.81
2023-06-03T08:22:45.656Z,101454.44
2023-06-03T08:25:19.699Z,101445.72
2023-06-03T08:27:47.944Z,101452.69
2023-06-03T08:30:15.706Z,101450.84
2023-06-03T08:32:45.953Z,101459.53
2023-06-03T08:35:21.453Z,101463.00
2023-06-03T08:37:48.597Z,101465.59
2023-06-03T08:40:17.691Z,101465.59
2023-06-03T08:42:47.001Z,101458.66
2023-06-03T08:45:18.282Z,101468.19
2023-06-03T08:48:01.821Z,101472.41
2023-06-03T08:50:29.854Z,101478.41
2023-06-03T08:52:58.250Z,101473.16
2023-06-03T08:55:28.849Z,101473.13
2023-06-03T08:58:24.841Z,101480.06
2023-06-03T09:01:02.578Z,101480.06
2023-06-03T09:03:31.095Z,101489.63
2023-06-03T09:06:01.825Z,101489.69
2023-06-03T09:08:29.264Z,101491.38
2023-06-03T09:10:56.850Z,101494.88
2023-06-03T09:13:24.719Z,101492.16
2023-06-03T09:15:52.779Z,101487.84
2023-06-03T09:18:19.937Z,101490.41
2023-06-03T09:20:47.036Z,101494.72
2023-06-03T09:23:17.879Z,101495.53
2023-06-03T09:25:45.144Z,101486.06
2023-06-03T09:28:12.763Z,101501.69
2023-06-03T09:30:41.037Z,101495.59
2023-06-03T09:33:10.637Z,101503.38
2023-06-03T09:35:38.125Z,101503.28
2023-06-03T09:38:08.404Z,101500.59
2023-06-03T09:40:36.101Z,101501.44
2023-06-03T09:43:11.059Z,101503.19
2023-06-03T09:45:38.091Z,101501.34
2023-06-03T09:48:05.300Z,101501.31
2023-06-03T09:50:32.856Z,101510.88
2023-06-03T09:53:01.352Z,101500.44
2023-06-03T09:55:35.541Z,101501.16
2023-06-03T09:58:07.616Z,101506.34
2023-06-03T10:00:50.230Z,101501.19
2023-06-03T10:03:20.044Z,101495.78
2023-06-03T10:05:47.348Z,101495.56
2023-06-03T10:08:14.337Z,101493.63
2023-06-03T10:11:00.943Z,101487.47
2023-06-03T10:13:28.254Z,101492.59
2023-06-03T10:15:56.150Z,101492.47
2023-06-03T10:18:37.316Z,101497.69
2023-06-03T10:21:12.050Z,101504.59
2023-06-03T10:23:41.273Z,101491.50
2023-06-03T10:26:14.858Z,101493.09
2023-06-03T10:28:41.946Z,101494.84
2023-06-03T10:31:10.099Z,101486.88
2023-06-03T10:33:41.197Z,101476.34
2023-06-03T10:36:09.045Z,101484.00
2023-06-03T10:38:39.847Z,101485.66
2023-06-03T10:41:08.973Z,101477.91
2023-06-03T10:43:38.270Z,101483.88
2023-06-03T10:46:05.756Z,101477.69
2023-06-03T10:48:37.877Z,101495.94
2023-06-03T10:51:31.888Z,101494.28
2023-06-03T10:54:21.408Z,101501.22
2023-06-03T10:56:53.644Z,101494.28
2023-06-03T10:59:22.931Z,101488.88
2023-06-03T11:02:02.011Z,101492.28
2023-06-03T11:04:36.750Z,101491.38
2023-06-03T11:07:05.992Z,101489.00
2023-06-03T11:09:38.779Z,101486.34
2023-06-03T11:12:14.780Z,101477.53
2023-06-03T11:14:49.851Z,101480.31
2023-06-03T11:17:19.733Z,101487.47
2023-06-03T11:19:46.950Z,101480.44
2023-06-03T11:22:38.803Z,101485.59
2023-06-03T11:25:25.164Z,101476.97
2023-06-03T11:27:52.338Z,101480.31
2023-06-03T11:30:19.680Z,101476.91
2023-06-03T11:33:10.714Z,101470.59
2023-06-03T11:35:37.753Z,101474.06
2023-06-03T11:38:05.259Z,101466.16
2023-06-03T11:40:45.562Z,101469.44
2023-06-03T11:43:13.089Z,101468.28
2023-06-03T11:45:40.288Z,101459.66
2023-06-03T11:48:10.574Z,101458.63
2023-06-03T11:50:55.235Z,101449.91
2023-06-03T11:53:33.002Z,101456.63
2023-06-03T11:56:09.576Z,101453.09
2023-06-03T11:58:38.450Z,101446.91
2023-06-03T12:01:18.316Z,101453.03
2023-06-03T12:04:02.001Z,101438.13
2023-06-03T12:06:36.975Z,101447.69
2023-06-03T12:09:04.340Z,101445.56
2023-06-03T12:11:33.178Z,101448.06
2023-06-03T12:14:02.595Z,101450.56
2023-06-03T12:16:33.622Z,101451.41
2023-06-03T12:19:04.028Z,101446.91
2023-06-03T12:21:35.264Z,101447.78
2023-06-03T12:24:14.063Z,101441.59
2023-06-03T12:26:42.632Z,101443.28
2023-06-03T12:29:12.205Z,101431.91
2023-06-03T12:31:39.864Z,101435.94
2023-06-03T12:34:07.300Z,101428.00
2023-06-03T12:36:49.260Z,101427.03
2023-06-03T12:39:21.256Z,101422.66
2023-06-03T12:41:53.526Z,101420.88
2023-06-03T12:44:21.547Z,101409.72
2023-06-03T12:47:05.033Z,101405.28
2023-06-03T12:49:32.631Z,101396.28
2023-06-03T12:52:20.309Z,101393.44
2023-06-03T12:54:59.382Z,101396.00
2023-06-03T12:57:26.353Z,101400.38
2023-06-03T13:00:08.479Z,101392.22
2023-06-03T13:02:43.232Z,101399.09
2023-06-03T13:05:14.000Z,101396.56
2023-06-03T13:07:43.380Z,101386.75
2023-06-03T13:10:15.586Z,101391.94
2023-06-03T13:12:44.367Z,101394.09
2023-06-03T13:15:11.799Z,101397.69
2023-06-03T13:17:39.204Z,101389.78
2023-06-03T13:20:08.220Z,101382.75
2023-06-03T13:22:37.172Z,101389.78
2023-06-03T13:25:04.780Z,101387.91
2023-06-03T13:27:32.142Z,101393.94
2023-06-03T13:29:59.181Z,101390.28
2023-06-03T13:32:26.407Z,101392.09
2023-06-03T13:34:54.867Z,101395.28
2023-06-03T13:37:25.585Z,101401.69
2023-06-03T13:39:54.987Z,101404.91
2023-06-03T13:42:22.043Z,101408.00
2023-06-03T13:44:52.883Z,101403.72
2023-06-03T13:47:22.084Z,101401.94
2023-06-03T13:49:49.230Z,101400.41
2023-06-03T13:52:17.989Z,101387.50
2023-06-03T13:54:47.365Z,101394.44
2023-06-03T13:57:14.624Z,101397.97
2023-06-03T13:59:41.651Z,101398.97
2023-06-03T14:02:13.699Z,101404.41
2023-06-03T14:04:41.368Z,101401.72
2023-06-03T14:07:10.919Z,101407.69
2023-06-03T14:09:38.394Z,101408.50
2023-06-03T14:12:06.266Z,101409.13
2023-06-03T14:14:33.319Z,101419.59
2023-06-03T14:17:00.358Z,101419.50
2023-06-03T14:19:27.472Z,101417.91
2023-06-03T14:21:54.607Z,101423.38
2023-06-03T14:24:21.668Z,101422.50
2023-06-03T14:26:48.692Z,101415.72
2023-06-03T14:29:15.830Z,101420.16
2023-06-03T14:31:44.762Z,101406.41
2023-06-03T14:34:14.762Z,101399.25
2023-06-03T14:36:41.756Z,101402.72
2023-06-03T14:39:08.812Z,101409.00
2023-06-03T14:41:36.304Z,101409.97
2023-06-03T14:44:03.345Z,101412.47
2023-06-03T14:46:30.678Z,101416.06
2023-06-03T14:49:07.229Z,101412.91
2023-06-03T14:51:34.265Z,101416.22
2023-06-03T14:54:01.375Z,101412.63
2023-06-03T14:56:28.444Z,101415.03
2023-06-03T14:58:56.917Z,101421.16
2023-06-03T15:01:27.860Z,101421.16
2023-06-03T15:03:55.515Z,101419.94
2023-06-03T15:06:22.530Z,101416.78
2023-06-03T15:08:49.701Z,101416.94
2023-06-03T15:11:19.669Z,101410.03
2023-06-03T15:13:46.735Z,101422.88
2023-06-03T15:16:13.795Z,101404.88
2023-06-03T15:18:43.887Z,101400.91
2023-06-03T15:21:11.150Z,101399.69
2023-06-03T15:23:38.388Z,101411.00
2023-06-03T15:26:05.787Z,101409.88
2023-06-03T15:28:32.919Z,101409.69
2023-06-03T15:31:00.319Z,101416.56
2023-06-03T15:33:31.130Z,101415.25
2023-06-03T15:36:04.228Z,101414.69
2023-06-03T15:38:32.267Z,101412.09
2023-06-03T15:40:59.376Z,101414.13
2023-06-03T15:43:26.587Z,101405.31
2023-06-03T15:45:53.704Z,101412.81
2023-06-03T15:48:20.961Z,101414.44
2023-06-03T15:50:51.316Z,101413.47
2023-06-03T15:53:19.462Z,101415.81
2023-06-03T15:55:46.661Z,101399.31
2023-06-03T15:58:13.831Z,101408.72
2023-06-03T16:00:41.112Z,101407.88
2023-06-03T16:03:08.854Z,101410.44
2023-06-03T16:05:36.560Z,101400.88
2023-06-03T16:08:03.580Z,101407.50
2023-06-03T16:10:31.106Z,101404.19
2023-06-03T16:13:00.592Z,101404.38
2023-06-03T16:15:27.618Z,101411.41
2023-06-03T16:17:54.618Z,101415.56
2023-06-03T16:20:22.299Z,101418.94
2023-06-03T16:22:50.512Z,101418.56
2023-06-03T16:25:17.459Z,101410.78
2023-06-03T16:27:46.076Z,101404.13
2023-06-03T16:30:13.553Z,101401.44
2023-06-03T16:32:40.547Z,101397.00
2023-06-03T16:35:08.063Z,101397.81
2023-06-03T16:37:35.213Z,101391.50
2023-06-03T16:40:02.322Z,101382.66
2023-06-03T16:42:30.791Z,101382.09
2023-06-03T16:44:57.980Z,101381.47
2023-06-03T16:47:25.061Z,101385.25
2023-06-03T16:49:52.206Z,101393.19
2023-06-03T16:52:20.116Z,101388.38
2023-06-03T16:54:47.153Z,101401.47
2023-06-03T16:57:16.061Z,101413.50
2023-06-03T16:59:43.250Z,101408.22
2023-06-03T17:02:10.217Z,101417.56
2023-06-03T17:04:37.243Z,101414.13
2023-06-03T17:07:04.478Z,101418.44
2023-06-03T17:09:31.500Z,101422.78
2023-06-03T17:11:58.575Z,101424.50
2023-06-03T17:14:25.685Z,101421.88
2023-06-03T17:16:52.825Z,101423.47
2023-06-03T17:19:19.990Z,101433.19
2023-06-03T17:21:47.128Z,101428.06
2023-06-03T17:24:14.269Z,101437.66
2023-06-03T17:26:41.286Z,101446.47
2023-06-03T17:29:08.643Z,101452.81
2023-06-03T17:31:40.478Z,101461.69
2023-06-03T17:34:07.539Z,101461.69
2023-06-03T17:36:34.681Z,101456.53
2023-06-03T17:39:02.411Z,101454.72
2023-06-03T17:41:29.636Z,101449.56
2023-06-03T17:43:59.750Z,101446.16
2023-06-03T17:46:29.616Z,101450.50
2023-06-03T17:48:56.930Z,101454.16
2023-06-03T17:51:23.962Z,101443.91
2023-06-03T17:53:53.405Z,101449.13
2023-06-03T17:56:20.528Z,101452.75
2023-06-03T17:58:47.653Z,101459.72
2023-06-03T18:01:14.672Z,101463.13
2023-06-03T18:03:44.311Z,101457.00
2023-06-03T18:06:11.664Z,101459.56
2023-06-03T18:08:38.622Z,101457.00
2023-06-03T18:11:06.025Z,101466.50
2023-06-03T18:13:33.079Z,101465.69
2023-06-03T18:16:00.140Z,101478.78
2023-06-03T18:18:27.367Z,101481.38
2023-06-03T18:20:54.531Z,101484.00
2023-06-03T18:23:22.934Z,101482.25
2023-06-03T18:25:50.477Z,101484.91
2023-06-03T18:28:17.480Z,101484.06
2023-06-03T18:30:44.553Z,101485.81
2023-06-03T18:33:11.596Z,101485.84
2023-06-03T18:35:41.668Z,101490.25
2023-06-03T18:38:08.816Z,101495.47
2023-06-03T18:40:36.089Z,101493.72
2023-06-03T18:43:03.291Z,101488.59
2023-06-03T18:45:30.390Z,101492.09
2023-06-03T18:47:57.553Z,101496.47
2023-06-03T18:50:24.581Z,101503.47
2023-06-03T18:52:51.787Z,101501.88
2023-06-03T18:55:18.913Z,101505.41
2023-06-03T18:57:46.449Z,101502.84
2023-06-03T19:00:13.812Z,101501.06
2023-06-03T19:02:40.900Z,101505.41
2023-06-03T19:05:08.287Z,101502.91
2023-06-03T19:07:35.512Z,101498.66
2023-06-03T19:10:02.555Z,101500.50
2023-06-03T19:12:30.311Z,101504.03
2023-06-03T19:14:57.477Z,101509.28
2023-06-03T19:17:25.276Z,101505.84
2023-06-03T19:19:52.390Z,101505.09
2023-06-03T19:22:19.413Z,101511.22
2023-06-03T19:24:47.629Z,101504.28
2023-06-03T19:27:14.680Z,101500.00
2023-06-03T19:29:41.682Z,101507.94
2023-06-03T19:32:09.291Z,101522.69
2023-06-03T19:34:36.272Z,101527.97
2023-06-03T19:37:07.393Z,101528.88
2023-06-03T19:39:34.777Z,101521.09
2023-06-03T19:42:01.813Z,101522.03
2023-06-03T19:44:28.898Z,101530.69
2023-06-03T19:46:58.007Z,101537.66
2023-06-03T19:49:25.945Z,101538.56
2023-06-03T19:51:52.991Z,101536.91
2023-06-03T19:54:21.291Z,101542.09
2023-06-03T19:56:49.564Z,101540.38
2023-06-03T19:59:19.912Z,101545.63
2023-06-03T20:01:47.030Z,101549.09
2023-06-03T20:04:14.194Z,101546.56
2023-06-03T20:06:41.309Z,101541.38
2023-06-03T20:09:08.397Z,101544.91
2023-06-03T20:11:37.545Z,101537.94
2023-06-03T20:14:04.691Z,101537.09
2023-06-03T20:16:31.782Z,101538.94
2023-06-03T20:18:59.118Z,101530.34
2023-06-03T20:21:26.652Z,101539.03
2023-06-03T20:23:56.410Z,101536.47
2023-06-03T20:26:26.160Z,101535.56
2023-06-03T20:28:58.956Z,101553.78
2023-06-03T20:31:26.115Z,101551.19
2023-06-03T20:33:55.553Z,101551.16
2023-06-03T20:36:25.524Z,101560.72
2023-06-03T20:38:52.682Z,101560.72
2023-06-03T20:41:19.750Z,101552.06
2023-06-03T20:43:47.360Z,101552.06
2023-06-03T20:46:14.538Z,101560.78
2023-06-03T20:48:41.654Z,101559.06
2023-06-03T20:51:09.056Z,101566.84
2023-06-03T20:53:36.212Z,101567.72
2023-06-03T20:56:03.467Z,101561.66
2023-06-03T20:58:30.841Z,101570.34
2023-06-03T21:01:02.289Z,101571.22
2023-06-03T21:03:29.382Z,101567.75
2023-06-03T21:05:56.419Z,101566.03
2023-06-03T21:08:23.431Z,101564.28
2023-06-03T21:10:50.713Z,101560.88
2023-06-03T21:13:17.943Z,101565.22
2023-06-03T21:15:45.064Z,101574.78
2023-06-03T21:18:12.462Z,101562.72
2023-06-03T21:20:39.529Z,101562.75
2023-06-03T21:23:06.621Z,101562.78
2023-06-03T21:25:36.059Z,101561.03
2023-06-03T21:28:03.323Z,101561.91
2023-06-03T21:30:30.341Z,101563.59
2023-06-03T21:32:57.425Z,101561.00
2023-06-03T21:35:24.484Z,101561.84
2023-06-03T21:37:51.552Z,101572.25
2023-06-03T21:40:18.702Z,101586.09
2023-06-03T21:42:48.131Z,101584.38
2023-06-03T21:45:15.301Z,101585.25
2023-06-03T21:47:42.429Z,101586.16
2023-06-03T21:50:09.766Z,101582.69
2023-06-03T21:52:36.874Z,101591.38
2023-06-03T21:55:04.542Z,101593.94
2023-06-03T21:57:34.183Z,101598.25
2023-06-03T22:00:01.550Z,101595.66
2023-06-03T22:05:28.675Z,101588.75
2023-06-03T22:07:55.800Z,101589.63
2023-06-03T22:10:22.779Z,101584.41
2023-06-03T22:12:52.883Z,101584.41
2023-06-03T22:15:20.430Z,101581.84
2023-06-03T22:17:47.547Z,101572.31
2023-06-03T22:20:21.472Z,101571.44
2023-06-03T22:23:02.307Z,101562.78
2023-06-03T22:25:34.866Z,101566.25
2023-06-03T22:28:02.272Z,101568.84
2023-06-03T22:30:29.262Z,101561.06
2023-06-03T22:32:56.395Z,101561.06
2023-06-03T22:35:26.231Z,101549.84
2023-06-03T22:37:53.292Z,101545.50
2023-06-03T22:40:20.276Z,101531.63
2023-06-03T22:42:47.285Z,101525.56
2023-06-03T22:45:14.819Z,101530.75
2023-06-03T22:47:42.341Z,101527.28
2023-06-03T22:50:09.792Z,101518.69
2023-06-03T22:52:37.294Z,101516.91
2023-06-03T22:55:05.089Z,101520.41
2023-06-03T22:57:32.104Z,101524.72
2023-06-03T22:59:59.259Z,101527.28
2023-06-03T23:02:26.277Z,101524.72
2023-06-03T23:05:13.924Z,101525.59
2023-06-03T23:08:03.224Z,101516.09
2023-06-03T23:10:31.424Z,101518.66
2023-06-03T23:12:58.361Z,101523.88
2023-06-03T23:15:25.498Z,101520.44
2023-06-03T23:17:54.406Z,101523.00
2023-06-03T23:20:23.553Z,101510.03
2023-06-03T23:22:50.766Z,101511.78
2023-06-03T23:25:17.995Z,101515.25
2023-06-03T23:27:45.511Z,101517.84
2023-06-03T23:30:13.939Z,101524.75
2023-06-03T23:32:42.331Z,101524.75
2023-06-03T23:35:10.150Z,101529.09
2023-06-03T23:37:40.716Z,101532.53
2023-06-03T23:40:14.169Z,101526.50
2023-06-03T23:42:44.067Z,101529.09
2023-06-03T23:45:12.206Z,101520.41
2023-06-03T23:47:39.501Z,101526.47
2023-06-03T23:50:07.412Z,101526.50
2023-06-03T23:52:34.419Z,101527.34
2023-06-03T23:55:04.442Z,101528.22
2023-06-03T23:57:31.663Z,101532.53
